Time;durP1;ratioP1;P1;durP2;ratioP2;P2;SDS_P1;SDS_P2;PMS_P1;PMS_P2;Temp;Humidity;BMP_temperature;BMP_pressure;BME280_temperature;BME280_humidity;BME280_pressure;Samples;Min_cycle;Max_cycle;Signal;HPM_P1;HPM_P2
2022/05/23 08:37:47;;;;;;;;;6.50;5.25;;;;;23.91;47.28;99585.06;5011363;28;44738;-46
2022/05/23 08:40:13;;;;;;;;;7.50;7.00;;;;;23.92;46.78;99578.75;5006302;28;46575;-51
2022/05/23 08:42:41;;;;;;;;;7.50;7.00;;;;;23.93;47.11;99580.44;5008232;28;45265;-48
2022/05/23 08:45:14;;;;;;;;;7.00;7.00;;;;;23.94;47.45;99581.28;5012871;28;45456;-53
2022/05/23 08:48:00;;;;;;;;;6.25;6.00;;;;;23.95;47.22;99583.00;4999198;28;45562;-51
2022/05/23 08:50:41;;;;;;;;;8.50;5.00;;;;;23.94;47.19;99576.81;5015291;28;45400;-49
2022/05/23 08:53:17;;;;;;;;;7.00;5.75;;;;;23.97;47.62;99596.94;5018134;28;45099;-47
2022/05/23 08:56:14;;;;;;;;;6.00;6.00;;;;;23.97;47.84;99589.00;5016451;28;44656;-47
2022/05/23 08:58:48;;;;;;;;;5.00;5.00;;;;;23.97;47.82;99591.63;5015556;28;45305;-48
2022/05/23 09:01:20;;;;;;;;;7.75;7.00;;;;;23.97;47.68;99591.63;5009127;28;46537;-48
2022/05/23 09:04:13;;;;;;;;;6.50;6.50;;;;;23.96;47.38;99589.97;5000812;28;45322;-48
2022/05/23 09:06:47;;;;;;;;;8.50;6.00;;;;;23.97;47.75;99589.00;5002412;28;45487;-47
2022/05/23 09:09:17;;;;;;;;;6.50;6.50;;;;;23.99;47.89;99599.44;4999127;28;45420;-48
2022/05/23 09:11:46;;;;;;;;;8.00;7.00;;;;;23.98;47.85;99603.88;4998283;28;45404;-48
2022/05/23 09:14:16;;;;;;;;;8.00;6.75;;;;;23.98;47.74;99603.88;4997679;28;45893;-49
2022/05/23 09:16:46;;;;;;;;;9.25;7.00;;;;;23.99;47.78;99596.78;4998277;28;45337;-50
2022/05/23 09:19:39;;;;;;;;;6.00;6.00;;;;;23.99;47.60;99592.31;4999636;28;45372;-48
2022/05/23 09:22:14;;;;;;;;;7.00;6.00;;;;;24.00;47.80;99583.41;5001537;28;45753;-48
2022/05/23 09:24:39;;;;;;;;;6.50;6.50;;;;;24.00;47.42;99586.03;5009378;28;45230;-48
2022/05/23 09:27:15;;;;;;;;;5.00;4.33;;;;;24.02;47.67;99588.56;5013271;28;45432;-48
2022/05/23 09:29:40;;;;;;;;;7.00;7.00;;;;;24.01;47.32;99587.72;5007754;28;45379;-51
2022/05/23 09:32:12;;;;;;;;;8.00;6.25;;;;;24.02;47.81;99588.56;5002772;28;45352;-48
2022/05/23 09:34:47;;;;;;;;;10.25;7.50;;;;;24.03;47.39;99580.50;4999347;28;45240;-47
2022/05/23 09:37:46;;;;;;;;;6.00;6.00;;;;;24.03;47.75;99574.38;5002200;28;45328;-48
2022/05/23 09:40:26;;;;;;;;;6.25;6.25;;;;;24.05;47.19;99577.69;4997636;28;45378;-46
2022/05/23 09:48:34;;;;;;;;;9.75;8.00;;;;;24.06;47.12;99566.13;5001635;28;45262;-49
2022/05/23 09:51:05;;;;;;;;;7.75;6.00;;;;;24.07;47.18;99567.81;5003006;28;45320;-48
2022/05/23 09:53:47;;;;;;;;;6.25;5.75;;;;;24.08;47.76;99572.13;5001420;28;46391;-47
2022/05/23 09:56:34;;;;;;;;;8.75;8.75;;;;;24.08;47.69;99583.56;5000712;28;45877;-48
2022/05/23 09:59:02;;;;;;;;;8.75;7.75;;;;;24.05;47.16;99573.25;5000778;28;45502;-49
2022/05/23 10:01:31;;;;;;;;;0.00;0.00;;;;;24.08;47.22;99580.91;5001232;28;45348;-48
2022/05/23 10:03:57;;;;;;;;;6.25;6.00;;;;;24.08;47.21;99580.06;5000517;28;45479;-47
2022/05/23 10:06:52;;;;;;;;;9.00;8.00;;;;;24.08;47.60;99583.56;5000610;28;45317;-47
2022/05/23 10:09:28;;;;;;;;;8.25;7.25;;;;;24.08;47.41;99580.06;4995874;28;45386;-50
2022/05/23 10:11:57;;;;;;;;;8.00;8.00;;;;;24.08;47.43;99572.97;5001021;28;45460;-47
2022/05/23 10:14:25;;;;;;;;;9.00;7.50;;;;;24.08;47.51;99578.28;5000731;28;46754;-46
2022/05/23 10:16:56;;;;;;;;;9.00;8.00;;;;;24.08;47.05;99570.34;5000180;28;45243;-50
2022/05/23 10:19:33;;;;;;;;;8.50;8.50;;;;;24.08;47.30;99572.97;5000351;28;45394;-47
2022/05/23 10:22:18;;;;;;;;;9.25;8.00;;;;;24.08;47.36;99572.13;5000979;28;45161;-46
2022/05/23 10:25:00;;;;;;;;;7.25;7.25;;;;;24.07;47.03;99576.59;5001438;28;46306;-48
2022/05/23 10:27:55;;;;;;;;;7.00;7.00;;;;;24.08;47.41;99580.91;5000690;28;45765;-47
2022/05/23 10:30:23;;;;;;;;;8.75;6.25;;;;;24.07;47.16;99584.53;4997500;28;45347;-47
2022/05/23 10:32:56;;;;;;;;;9.75;9.00;;;;;24.07;47.32;99581.91;5000838;28;45533;-49
2022/05/23 10:35:28;;;;;;;;;10.00;9.00;;;;;24.07;46.74;99584.53;5001130;28;45431;-49
2022/05/23 10:42:07;;;;;;;;;10.50;8.00;;;;;24.07;46.95;99581.91;5002191;28;45473;-47
2022/05/23 10:43:25;;;;;;;;;8.75;8.00;;;;;24.06;47.13;99577.56;5010526;28;45305;-49
2022/05/23 10:46:00;;;;;;;;;11.75;11.00;;;;;24.07;47.30;99571.31;5013698;28;47178;-48
2022/05/23 10:48:37;;;;;;;;;11.50;11.50;;;;;24.08;47.13;99569.47;5012643;28;45788;-48
2022/05/23 10:51:29;;;;;;;;;14.00;13.00;;;;;24.07;47.02;99575.75;5016599;28;45282;-48
2022/05/23 10:54:20;;;;;;;;;17.75;16.25;;;;;24.06;47.29;99574.06;5008447;28;45266;-53
2022/05/23 10:56:57;;;;;;;;;13.25;13.25;;;;;24.07;47.24;99565.16;5019438;28;47257;-54
2022/05/23 10:59:51;;;;;;;;;15.00;12.75;;;;;24.06;47.68;99561.69;5006163;28;45336;-54
2022/05/23 11:02:34;;;;;;;;;14.25;11.00;;;;;24.05;47.81;99564.47;5017289;28;45269;-56
2022/05/23 11:05:27;;;;;;;;;13.25;13.00;;;;;24.04;47.45;99576.88;5000100;28;45972;-54
2022/05/23 11:08:05;;;;;;;;;10.75;10.75;;;;;24.06;47.85;99592.59;5000064;28;46284;-55
2022/05/23 11:11:01;;;;;;;;;14.25;13.00;;;;;24.06;47.67;99596.09;4999547;28;45773;-54
2022/05/23 11:13:49;;;;;;;;;16.50;14.00;;;;;24.09;47.94;99579.91;4999741;28;45187;-55
2022/05/23 11:16:40;;;;;;;;;17.75;14.00;;;;;24.16;47.79;99560.84;4999195;28;45413;-53
2022/05/23 11:19:14;;;;;;;;;15.00;13.75;;;;;24.25;47.99;99562.66;4999119;28;47319;-55
2022/05/23 11:22:11;;;;;;;;;11.25;11.25;;;;;24.28;47.59;99572.97;4999896;28;45796;-56
2022/05/23 11:24:48;;;;;;;;;11.50;10.50;;;;;24.28;47.99;99578.25;5015955;28;45354;-55
2022/05/23 11:35:48;;;;;;;;;11.00;11.00;;;;;24.27;47.80;99581.03;5003211;28;45241;-56
2022/05/23 11:38:18;;;;;;;;;15.25;12.75;;;;;24.25;47.78;99578.53;4999252;28;45473;-54
2022/05/23 11:41:04;;;;;;;;;12.75;10.75;;;;;24.26;47.56;99579.34;4998960;28;47052;-55
2022/05/23 11:43:29;;;;;;;;;8.75;8.25;;;;;24.24;48.12;99583.00;4998878;28;45284;-54
2022/05/23 11:46:04;;;;;;;;;12.00;12.00;;;;;24.24;48.83;99583.00;4998108;28;45398;-55
2022/05/23 11:48:36;;;;;;;;;16.75;15.00;;;;;24.26;48.76;99585.50;4997727;28;45449;-56
2022/05/23 11:51:38;;;;;;;;;16.00;15.75;;;;;24.23;49.82;99583.13;4998875;28;46492;-56
2022/05/23 11:54:32;;;;;;;;;14.25;14.00;;;;;24.21;50.19;99595.66;4994778;28;45455;-55
2022/05/23 11:57:00;;;;;;;;;16.75;16.00;;;;;24.16;49.89;99595.25;4998847;28;45416;-55
2022/05/23 11:59:25;;;;;;;;;13.75;12.75;;;;;24.12;49.68;99589.41;4998184;28;45408;-54
2022/05/23 12:02:12;;;;;;;;;13.67;13.00;;;;;24.09;50.33;99589.69;4998592;28;46236;-55
2022/05/23 12:04:40;;;;;;;;;14.50;14.00;;;;;24.06;51.05;99596.09;4999684;28;45784;-56
2022/05/23 12:07:05;;;;;;;;;17.75;15.25;;;;;24.04;50.74;99598.03;5004741;28;45409;-55
2022/05/23 12:09:35;;;;;;;;;18.75;16.00;;;;;24.02;51.70;99599.97;5003405;28;45349;-52
2022/05/23 12:12:33;;;;;;;;;19.00;17.50;;;;;23.98;51.27;99614.44;4998991;28;46077;-53
2022/05/23 12:14:58;;;;;;;;;15.25;15.25;;;;;23.94;50.64;99615.69;4998766;28;46152;-51
2022/05/23 12:17:31;;;;;;;;;15.25;15.25;;;;;23.88;50.80;99621.50;5001923;28;45284;-52
2022/05/23 12:19:59;;;;;;;;;11.75;11.75;;;;;23.82;50.71;99614.97;5000598;28;45408;-51
2022/05/23 12:22:33;;;;;;;;;11.00;11.00;;;;;23.82;50.83;99616.78;5000071;28;47439;-52
2022/05/23 12:25:07;;;;;;;;;12.00;11.75;;;;;23.83;50.79;99615.81;4998719;28;45273;-51
2022/05/23 12:27:39;;;;;;;;;13.50;10.75;;;;;23.84;50.30;99620.13;4998811;28;45364;-53
2022/05/23 12:30:38;;;;;;;;;5.50;5.50;;;;;23.86;50.49;99626.94;4998968;28;45399;-53
2022/05/23 12:33:12;;;;;;;;;9.50;9.00;;;;;23.87;49.96;99633.06;4994242;28;45420;-52
2022/05/23 12:35:40;;;;;;;;;9.25;9.25;;;;;23.89;49.81;99631.13;4998220;28;45399;-50
2022/05/23 12:38:21;;;;;;;;;11.75;9.00;;;;;23.92;50.01;99641.44;4998954;28;45246;-54
2022/05/23 12:41:01;;;;;;;;;9.75;8.50;;;;;23.94;49.63;99650.09;4999212;28;45506;-55
2022/05/23 12:44:01;;;;;;;;;8.00;8.00;;;;;23.93;49.93;99654.53;4998224;28;45616;-53
2022/05/23 12:46:51;;;;;;;;;8.50;7.50;;;;;23.95;49.31;99657.09;4998768;28;45942;-49
2022/05/23 12:49:53;;;;;;;;;8.00;7.00;;;;;23.97;49.63;99659.59;4999134;28;45282;-51
2022/05/23 12:52:56;;;;;;;;;9.00;8.25;;;;;23.97;49.46;99663.09;4999695;28;45739;-50
2022/05/23 12:55:28;;;;;;;;;11.00;8.50;;;;;23.96;49.45;99666.72;4999576;28;45439;-54
2022/05/23 12:58:04;;;;;;;;;8.75;7.00;;;;;23.97;49.17;99681.63;5000227;28;45253;-54
2022/05/23 13:01:15;;;;;;;;;8.00;8.00;;;;;23.98;49.31;99680.63;5000821;28;45459;-53
2022/05/23 13:03:55;;;;;;;;;7.25;7.25;;;;;23.97;49.18;99676.31;5001546;28;45218;-52
2022/05/23 13:06:55;;;;;;;;;9.00;7.00;;;;;23.99;49.19;99676.19;5000952;28;45517;-53
2022/05/23 13:09:41;;;;;;;;;7.00;7.00;;;;;24.00;49.08;99685.78;5004939;28;45676;-54
2022/05/23 13:12:11;;;;;;;;;6.25;6.00;;;;;24.00;48.51;99685.78;5011119;28;45549;-51
2022/05/23 13:14:56;;;;;;;;;7.75;6.00;;;;;24.00;48.59;99683.97;5014398;28;45380;-54
2022/05/23 13:17:30;;;;;;;;;5.25;5.25;;;;;24.02;48.83;99689.16;5012710;28;45443;-49
2022/05/23 13:22:39;;;;;;;;;6.00;6.00;;;;;24.02;48.73;99687.31;5012335;28;44758;-56
2022/05/23 13:25:05;;;;;;;;;6.00;6.00;;;;;24.04;48.75;99695.97;5011526;28;44921;-57
2022/05/23 13:27:43;;;;;;;;;7.00;7.00;;;;;24.05;48.02;99692.34;5012212;28;46021;-51
2022/05/23 13:30:17;;;;;;;;;7.75;7.00;;;;;24.07;48.06;99689.56;5012797;28;45195;-53
2022/05/23 13:32:43;;;;;;;;;7.50;5.75;;;;;24.08;48.42;99693.88;5011469;28;45392;-56
2022/05/23 13:35:34;;;;;;;;;6.25;6.25;;;;;24.07;48.10;99690.41;5010313;28;44831;-57
2022/05/23 13:38:34;;;;;;;;;6.00;6.00;;;;;24.08;47.83;99683.28;5001865;28;45556;-59
2022/05/23 13:41:01;;;;;;;;;6.75;6.25;;;;;24.08;47.92;99686.78;4986867;28;45836;-55
2022/05/23 13:43:31;;;;;;;;;5.00;5.00;;;;;24.07;48.22;99678.97;4997399;28;45463;-59
2022/05/23 13:46:15;;;;;;;;;6.50;5.25;;;;;24.09;48.00;99684.97;4998811;28;45655;-59
2022/05/23 13:48:48;;;;;;;;;6.25;6.25;;;;;24.09;48.02;99685.78;5001441;28;45517;-57
2022/05/23 13:51:22;;;;;;;;;6.00;6.00;;;;;24.10;48.07;99694.59;5004866;28;45388;-57
2022/05/23 13:54:07;;;;;;;;;6.75;6.00;;;;;24.12;47.91;99689.16;5017255;28;45501;-57
2022/05/23 13:56:35;;;;;;;;;5.50;4.50;;;;;24.11;47.79;99703.34;4999370;28;45411;-57
2022/05/23 13:59:09;;;;;;;;;6.25;5.25;;;;;24.12;47.77;99699.75;4997761;28;45399;-57
2022/05/23 14:01:43;;;;;;;;;4.00;4.00;;;;;24.13;47.36;99701.41;4997487;28;45403;-59
2022/05/23 14:04:13;;;;;;;;;6.25;6.25;;;;;24.12;47.13;99697.94;4997989;28;45320;-56
2022/05/23 14:06:48;;;;;;;;;4.00;4.00;;;;;24.13;47.07;99704.06;4997895;28;45230;-53
2022/05/23 14:09:14;;;;;;;;;5.25;5.25;;;;;24.13;47.67;99709.34;4997596;28;47029;-54
2022/05/23 14:11:47;;;;;;;;;4.75;4.75;;;;;24.13;47.40;99718.16;4997343;28;45373;-56
2022/05/23 14:14:15;;;;;;;;;7.00;5.00;;;;;24.14;47.21;99713.69;4996762;28;45229;-51
2022/05/23 14:16:51;;;;;;;;;5.25;3.50;;;;;24.13;47.08;99717.28;4996836;28;45510;-49
2022/05/23 14:19:21;;;;;;;;;4.00;4.00;;;;;24.15;47.06;99728.59;5018132;28;47065;-54
2022/05/23 14:21:46;;;;;;;;;4.75;4.25;;;;;24.13;47.26;99720.78;5009322;28;45273;-51
2022/05/23 14:24:18;;;;;;;;;5.25;4.25;;;;;24.14;47.21;99730.41;5005596;28;45436;-52
2022/05/23 14:26:59;;;;;;;;;5.00;3.25;;;;;24.14;47.00;99737.50;5005839;28;45550;-54
2022/05/23 14:29:24;;;;;;;;;5.00;5.00;;;;;24.13;47.27;99739.31;5000013;28;45706;-51
2022/05/23 14:31:52;;;;;;;;;4.00;4.00;;;;;24.14;46.48;99746.31;5000728;28;45625;-52
2022/05/23 14:34:27;;;;;;;;;4.25;4.25;;;;;24.14;46.38;99748.09;5001548;28;45324;-57
2022/05/23 14:36:56;;;;;;;;;5.00;2.00;;;;;24.15;46.82;99752.41;5004450;28;45321;-52
2022/05/23 14:39:27;;;;;;;;;4.00;4.00;;;;;24.14;46.42;99750.75;5007936;28;46197;-51
2022/05/23 14:41:53;;;;;;;;;4.00;4.00;;;;;24.14;46.67;99756.03;5012715;28;45418;-53
2022/05/23 14:44:19;;;;;;;;;3.00;3.00;;;;;24.15;46.28;99763.00;5010665;28;45365;-54
2022/05/23 14:47:18;;;;;;;;;5.50;5.50;;;;;24.14;46.43;99763.97;5000960;28;45491;-53
2022/05/23 14:50:18;;;;;;;;;4.50;4.00;;;;;24.13;46.09;99760.50;5000233;28;46085;-49
2022/05/23 14:55:18;;;;;;;;;3.25;3.25;;;;;24.13;46.54;99767.59;5000112;28;45301;-54
2022/05/23 14:55:48;;;;;;;;;3.75;3.75;;;;;24.12;46.26;99758.81;5000384;28;45220;-53
2022/05/23 15:01:20;;;;;;;;;3.50;3.50;;;;;24.09;45.91;99751.97;5004936;28;45480;-54
2022/05/23 15:03:49;;;;;;;;;4.25;4.25;;;;;24.09;46.21;99759.09;5000242;28;45359;-55
2022/05/23 15:06:16;;;;;;;;;4.25;4.25;;;;;24.08;46.31;99763.56;5000963;28;45262;-54
2022/05/23 15:08:42;;;;;;;;;3.25;3.25;;;;;24.07;46.03;99761.88;5000088;28;45800;-56
2022/05/23 15:11:30;;;;;;;;;3.75;3.75;;;;;24.06;45.57;99765.50;4999812;28;45340;-57
2022/05/23 15:13:58;;;;;;;;;5.25;4.00;;;;;24.07;46.24;99772.47;4999566;28;45899;-53
2022/05/23 15:16:27;;;;;;;;;4.00;4.00;;;;;24.05;46.16;99779.69;4999853;28;45239;-54
2022/05/23 15:18:53;;;;;;;;;4.00;4.00;;;;;24.05;45.62;99785.00;4999918;28;45412;-49
2022/05/23 15:21:18;;;;;;;;;4.50;4.50;;;;;24.05;45.71;99792.94;5000407;28;47381;-57
2022/05/23 15:23:43;;;;;;;;;6.50;6.00;;;;;24.04;46.02;99790.41;5009093;28;45406;-52
2022/05/23 15:26:13;;;;;;;;;4.25;4.25;;;;;24.04;45.64;99783.31;5016217;28;45395;-57
2022/05/23 15:28:39;;;;;;;;;4.50;4.00;;;;;24.03;45.63;99794.03;5002729;28;45330;-54
2022/05/23 15:31:11;;;;;;;;;1.50;1.50;;;;;24.03;45.39;99802.00;5008291;28;46080;-52
2022/05/23 15:33:36;;;;;;;;;4.25;4.25;;;;;24.02;45.21;99801.13;5018254;28;45769;-52
2022/05/23 15:36:02;;;;;;;;;3.50;3.50;;;;;24.01;45.28;99806.56;5014864;28;44916;-52
2022/05/23 15:38:28;;;;;;;;;4.50;4.50;;;;;24.01;45.21;99799.44;5017283;28;45289;-53
2022/05/23 15:40:54;;;;;;;;;6.25;4.25;;;;;24.01;45.50;99801.28;5018312;28;46290;-55
2022/05/23 15:43:19;;;;;;;;;5.00;3.25;;;;;24.01;45.78;99804.75;5008691;28;45206;-55
2022/05/23 15:45:48;;;;;;;;;4.50;4.50;;;;;24.00;45.21;99802.25;5001885;28;45336;-52
2022/05/23 15:48:15;;;;;;;;;3.25;3.25;;;;;24.00;45.23;99810.19;4999939;28;45490;-49
2022/05/23 15:50:44;;;;;;;;;5.25;4.00;;;;;24.00;45.32;99803.06;4999119;28;47575;-54
2022/05/23 15:53:10;;;;;;;;;4.00;4.00;;;;;23.99;45.62;99811.97;4999332;28;45230;-59
2022/05/23 15:55:35;;;;;;;;;4.25;4.25;;;;;23.99;45.27;99811.97;4999140;28;45365;-51
2022/05/23 15:58:01;;;;;;;;;5.00;3.00;;;;;23.98;45.01;99810.28;4999348;28;45182;-51
2022/05/23 16:00:28;;;;;;;;;5.50;4.25;;;;;23.98;45.21;99812.13;4998898;28;45335;-54
2022/05/23 16:02:55;;;;;;;;;5.00;4.00;;;;;23.97;45.42;99810.44;4999532;28;45752;-54
2022/05/23 16:05:23;;;;;;;;;3.75;3.75;;;;;23.98;45.53;99820.06;4999326;28;45501;-55
2022/05/23 16:07:48;;;;;;;;;3.75;3.75;;;;;23.98;45.43;99822.72;5003615;28;45289;-53
2022/05/23 16:10:14;;;;;;;;;3.75;3.75;;;;;23.96;45.09;99822.00;5003058;28;46465;-54
2022/05/23 16:12:45;;;;;;;;;3.00;3.00;;;;;23.96;45.44;99830.78;4998916;28;45312;-52
2022/05/23 16:15:12;;;;;;;;;2.50;2.50;;;;;23.95;45.56;99829.09;4999294;28;45265;-53
2022/05/23 16:17:43;;;;;;;;;5.25;5.00;;;;;23.96;45.15;99832.59;4999627;28;45388;-52
2022/05/23 16:20:09;;;;;;;;;3.75;2.00;;;;;23.95;45.42;99834.41;4999597;28;46193;-52
2022/05/23 16:22:34;;;;;;;;;4.00;4.00;;;;;23.95;45.38;99837.06;5001184;28;45615;-55
2022/05/23 16:25:00;;;;;;;;;4.25;3.00;;;;;23.95;45.07;99839.69;5000309;28;45368;-53
2022/05/23 16:27:25;;;;;;;;;4.00;4.00;;;;;23.94;45.50;99841.44;4999452;28;45513;-49
2022/05/23 16:29:51;;;;;;;;;6.00;3.75;;;;;23.95;45.10;99863.50;4998714;28;46274;-52
2022/05/23 16:37:44;;;;;;;;;3.75;3.75;;;;;23.92;44.85;99853.16;4999214;28;45380;-53
2022/05/23 16:40:10;;;;;;;;;3.25;3.25;;;;;23.94;45.55;99857.34;5000045;28;46469;-48
2022/05/23 16:42:36;;;;;;;;;3.50;3.50;;;;;23.93;45.50;99860.94;5000831;28;46488;-51
2022/05/23 16:45:05;;;;;;;;;2.75;2.75;;;;;23.94;45.32;99867.91;4999726;28;45416;-50
2022/05/23 16:47:31;;;;;;;;;3.25;2.50;;;;;23.92;45.70;99867.22;5004720;28;45229;-55
2022/05/23 16:49:56;;;;;;;;;7.50;3.75;;;;;23.92;45.80;99869.03;4999083;28;46321;-50
2022/05/23 16:52:22;;;;;;;;;4.75;4.00;;;;;23.91;45.62;99872.66;4998775;28;45405;-53
2022/05/23 16:54:48;;;;;;;;;7.00;5.50;;;;;23.92;45.32;99880.44;4998475;28;45490;-55
2022/05/23 16:57:14;;;;;;;;;3.50;3.50;;;;;23.92;45.47;99879.63;4998857;28;45516;-54
2022/05/23 16:59:39;;;;;;;;;4.25;4.25;;;;;23.90;45.58;99877.09;4998251;28;45464;-53
2022/05/23 17:02:04;;;;;;;;;4.25;3.00;;;;;23.91;45.30;99877.94;4998482;28;45320;-51
2022/05/23 17:04:30;;;;;;;;;3.75;3.75;;;;;23.91;45.06;99880.59;4998383;28;45268;-49
2022/05/23 17:06:55;;;;;;;;;4.50;4.25;;;;;23.89;45.72;99875.44;4999203;28;45392;-53
2022/05/23 17:09:21;;;;;;;;;4.25;4.25;;;;;23.90;45.55;99881.53;5000325;28;56871;-48
2022/05/23 17:11:47;;;;;;;;;4.00;4.00;;;;;23.90;45.33;99877.09;5002200;28;45396;-49
2022/05/23 17:14:12;;;;;;;;;4.00;4.00;;;;;23.89;45.14;99880.72;5004109;28;45332;-51
2022/05/23 17:16:38;;;;;;;;;3.75;3.75;;;;;23.89;45.54;99874.56;5008794;28;45186;-54
2022/05/23 17:19:04;;;;;;;;;3.25;3.25;;;;;23.89;45.42;99887.81;5011432;28;46414;-49
2022/05/23 17:21:30;;;;;;;;;5.00;5.00;;;;;23.89;45.64;99885.16;5013597;28;45325;-49
2022/05/23 17:23:55;;;;;;;;;5.75;4.00;;;;;23.89;45.46;99880.72;5012145;28;45419;-50
2022/05/23 17:26:20;;;;;;;;;5.00;5.00;;;;;23.88;45.60;99875.53;5013188;28;44825;-53
2022/05/23 17:28:46;;;;;;;;;4.00;4.00;;;;;23.89;45.47;99882.50;5002462;28;45421;-51
2022/05/23 17:31:11;;;;;;;;;4.00;4.00;;;;;23.89;45.16;99874.56;5000426;28;45761;-51
2022/05/23 17:33:37;;;;;;;;;5.00;4.00;;;;;23.89;45.25;99874.56;5000010;28;45399;-50
2022/05/23 17:36:07;;;;;;;;;5.00;5.00;;;;;23.89;45.55;99879.88;4999379;28;45600;-51
2022/05/23 17:38:32;;;;;;;;;3.00;3.00;;;;;23.89;45.51;99882.50;4997663;28;46659;-51
2022/05/23 17:41:03;;;;;;;;;4.00;3.25;;;;;23.89;45.42;99895.75;4998123;28;45253;-52
2022/05/23 17:43:28;;;;;;;;;3.00;3.00;;;;;23.89;44.83;99893.09;4998249;28;45345;-52
2022/05/23 17:45:54;;;;;;;;;3.75;3.00;;;;;23.89;44.82;99893.09;4997816;28;45273;-50
2022/05/23 17:48:19;;;;;;;;;4.00;3.00;;;;;23.87;45.63;99881.78;4997727;28;46562;-52
2022/05/23 17:50:45;;;;;;;;;3.25;3.25;;;;;23.87;45.05;99881.78;5001827;28;45407;-50
2022/05/23 17:53:11;;;;;;;;;2.50;2.50;;;;;23.85;45.25;99879.28;5001774;28;45422;-52
2022/05/23 17:55:37;;;;;;;;;3.25;3.25;;;;;23.87;45.04;99876.50;4997380;28;45679;-52
2022/05/23 17:58:03;;;;;;;;;2.75;2.75;;;;;23.85;44.82;99874.00;4997635;28;47507;-54
2022/05/23 18:00:29;;;;;;;;;4.00;2.00;;;;;23.86;44.94;99872.22;5003032;28;45328;-54
2022/05/23 18:02:56;;;;;;;;;2.25;2.00;;;;;23.86;45.13;99873.03;5019520;28;45306;-54
2022/05/23 18:05:25;;;;;;;;;2.75;2.25;;;;;23.85;45.24;99873.19;5001995;28;45588;-51
2022/05/23 18:07:51;;;;;;;;;2.50;2.50;;;;;23.84;45.36;99869.69;5000242;28;46562;-53
2022/05/23 18:10:17;;;;;;;;;3.25;3.25;;;;;23.86;45.24;99877.50;5000192;28;45449;-55
2022/05/23 18:12:43;;;;;;;;;1.00;1.00;;;;;23.85;44.63;99883.75;5001744;28;45263;-51
2022/05/23 18:20:38;;;;;;;;;1.75;1.00;;;;;23.86;44.67;99898.69;5007434;28;45707;-49
2022/05/23 18:23:04;;;;;;;;;3.25;2.00;;;;;23.84;44.64;99892.66;5001601;28;45231;-52
2022/05/23 18:25:29;;;;;;;;;1.00;1.00;;;;;23.82;44.35;99892.78;5003063;28;45537;-52
2022/05/23 18:27:55;;;;;;;;;1.00;1.00;;;;;23.83;44.64;99901.56;5003363;28;45305;-51
2022/05/23 18:30:20;;;;;;;;;0.00;0.00;;;;;23.82;44.77;99907.81;5000131;28;45302;-50
2022/05/23 18:32:46;;;;;;;;;2.50;2.00;;;;;23.82;44.30;99910.47;4999967;28;45221;-52
2022/05/23 18:35:11;;;;;;;;;1.75;1.75;;;;;23.82;44.43;99910.47;5000240;28;45605;-47
2022/05/23 18:37:41;;;;;;;;;2.25;1.00;;;;;23.78;45.00;99910.72;5000616;28;46072;-49
2022/05/23 18:40:11;;;;;;;;;2.00;1.75;;;;;23.80;44.34;99920.34;5000345;28;45929;-50
2022/05/23 18:42:37;;;;;;;;;1.00;1.00;;;;;23.81;44.72;99911.44;5002190;28;45710;-51
2022/05/23 18:45:03;;;;;;;;;3.00;1.25;;;;;23.79;43.96;99919.50;5010861;28;45564;-56
2022/05/23 18:47:28;;;;;;;;;1.75;1.75;;;;;23.78;44.47;99918.66;5017536;28;45641;-52
2022/05/23 18:49:58;;;;;;;;;0.00;0.00;;;;;23.78;44.42;99926.59;5020381;28;44786;-48
2022/05/23 18:52:25;;;;;;;;;2.00;1.00;;;;;23.77;44.11;99914.34;5020622;28;44758;-54
2022/05/23 18:54:52;;;;;;;;;2.50;2.00;;;;;23.77;44.03;99927.56;5020337;28;44964;-51
2022/05/23 18:57:19;;;;;;;;;2.00;2.00;;;;;23.75;44.00;99921.59;5016056;28;46207;-54
2022/05/23 18:59:45;;;;;;;;;1.25;1.00;;;;;23.76;44.01;99917.94;5016956;28;45233;-51
2022/05/23 19:02:11;;;;;;;;;1.00;1.00;;;;;23.75;44.01;99913.66;5016402;28;45399;-52
2022/05/23 19:04:36;;;;;;;;;1.00;1.00;;;;;23.75;43.96;99920.72;5010869;28;45244;-52
2022/05/23 19:07:03;;;;;;;;;2.00;2.00;;;;;23.74;43.79;99924.34;5005441;28;45521;-56
2022/05/23 19:09:28;;;;;;;;;3.50;2.00;;;;;23.74;44.15;99924.34;5004924;28;44990;-48
2022/05/23 19:11:54;;;;;;;;;3.00;1.00;;;;;23.73;43.95;99922.66;5006373;28;44811;-54
2022/05/23 19:14:19;;;;;;;;;2.50;1.00;;;;;23.70;44.06;99929.06;4998842;28;45346;-53
2022/05/23 19:16:44;;;;;;;;;2.00;2.00;;;;;23.71;44.10;99922.78;4998878;28;46360;-53
2022/05/23 19:19:10;;;;;;;;;1.75;1.75;;;;;23.71;44.42;99940.47;5003782;28;45191;-56
2022/05/23 19:21:35;;;;;;;;;2.00;2.00;;;;;23.70;44.13;99944.09;5008550;28;45153;-54
2022/05/23 19:24:01;;;;;;;;;1.50;1.00;;;;;23.70;43.76;99942.28;5018395;28;44886;-57
2022/05/23 19:26:26;;;;;;;;;5.00;1.75;;;;;23.67;44.29;99937.22;5007255;28;45324;-57
2022/05/23 19:28:52;;;;;;;;;2.00;2.00;;;;;23.69;43.85;99948.53;5007547;28;45202;-56
2022/05/23 19:31:18;;;;;;;;;2.00;2.00;;;;;23.67;43.99;99947.81;5006194;28;45298;-58
2022/05/23 19:33:43;;;;;;;;;0.25;0.25;;;;;23.68;44.12;99946.03;5008197;28;45383;-55
2022/05/23 19:36:09;;;;;;;;;2.75;1.75;;;;;23.68;44.13;99944.22;5007258;28;46667;-56
2022/05/23 19:38:34;;;;;;;;;2.00;1.00;;;;;23.68;44.08;99953.97;5007748;28;45495;-53
2022/05/23 19:41:00;;;;;;;;;1.00;1.00;;;;;23.65;44.38;99955.03;5008311;28;45436;-55
2022/05/23 19:43:25;;;;;;;;;1.00;1.00;;;;;23.68;44.10;99946.84;5005223;28;45871;-56
2022/05/23 19:45:51;;;;;;;;;1.75;1.75;;;;;23.68;43.78;99956.59;5006626;28;46120;-56
2022/05/23 19:48:20;;;;;;;;;2.00;2.00;;;;;23.68;44.31;99962.72;5001153;28;45392;-55
2022/05/23 19:50:46;;;;;;;;;2.00;2.00;;;;;23.68;44.16;99962.72;4998360;28;45246;-51
2022/05/23 19:53:12;;;;;;;;;2.00;2.00;;;;;23.66;43.84;99959.38;4998619;28;45475;-52
2022/05/23 19:55:37;;;;;;;;;1.75;1.75;;;;;23.66;44.06;99959.38;4998622;28;46493;-56
2022/05/23 19:58:04;;;;;;;;;2.50;2.00;;;;;23.65;44.07;99949.75;4998449;28;45353;-62
2022/05/23 20:00:32;;;;;;;;;1.00;1.00;;;;;23.66;43.92;99953.25;4997819;28;45354;-55
2022/05/23 20:08:25;;;;;;;;;5.00;2.00;;;;;23.65;44.44;99970.09;4998333;28;45350;-56
2022/05/23 20:10:51;;;;;;;;;2.00;2.00;;;;;23.65;44.15;99978.84;5001107;28;45281;-54
2022/05/23 20:13:17;;;;;;;;;2.00;2.00;;;;;23.65;44.09;99978.84;4998400;28;45510;-58
2022/05/23 20:15:43;;;;;;;;;2.00;2.00;;;;;23.66;44.50;99980.53;4997404;28;46285;-53
2022/05/23 20:18:12;;;;;;;;;3.00;3.00;;;;;23.67;44.24;99986.66;4997737;28;45286;-51
2022/05/23 20:20:43;;;;;;;;;2.50;2.00;;;;;23.66;44.56;99991.09;4997309;28;45387;-56
2022/05/23 20:23:11;;;;;;;;;1.50;1.25;;;;;23.67;44.30;99999.91;4997437;28;45479;-53
2022/05/23 20:25:37;;;;;;;;;1.75;1.00;;;;;23.66;44.04;100004.34;4998007;28;45434;-60
2022/05/23 20:28:04;;;;;;;;;1.75;1.00;;;;;23.67;44.44;100003.38;4998626;28;45799;-53
2022/05/23 20:30:32;;;;;;;;;2.00;2.00;;;;;23.66;44.43;99995.56;5000276;28;45388;-57
2022/05/23 20:32:58;;;;;;;;;1.75;1.75;;;;;23.66;44.43;99985.81;5000518;28;45322;-55
2022/05/23 20:35:24;;;;;;;;;1.00;1.00;;;;;23.66;44.80;99985.00;4998054;28;46733;-57
2022/05/23 20:37:50;;;;;;;;;2.00;2.00;;;;;23.66;44.73;99996.41;4996818;28;45331;-58
2022/05/23 20:40:18;;;;;;;;;2.00;2.00;;;;;23.66;44.70;100001.69;4997399;28;45277;-59
2022/05/23 20:42:44;;;;;;;;;2.00;2.00;;;;;23.66;44.51;99991.09;4999404;28;45356;-53
2022/05/23 20:45:10;;;;;;;;;3.75;2.25;;;;;23.67;44.86;100000.72;4997097;28;46539;-56
2022/05/23 20:47:39;;;;;;;;;2.50;2.50;;;;;23.67;45.05;99989.31;4996319;28;45366;-55
2022/05/23 20:50:13;;;;;;;;;2.50;2.50;;;;;23.65;44.55;99992.06;4996957;28;45368;-50
2022/05/23 20:52:38;;;;;;;;;2.00;2.00;;;;;23.66;45.03;99995.56;4996846;28;45451;-51
2022/05/23 20:55:07;;;;;;;;;2.00;2.00;;;;;23.66;44.81;99991.09;4996681;28;45431;-55
2022/05/23 20:57:33;;;;;;;;;2.00;2.00;;;;;23.66;44.62;99998.22;4996427;28;45616;-58
2022/05/23 20:59:58;;;;;;;;;3.00;1.50;;;;;23.66;44.93;99992.94;4996738;28;45443;-56
2022/05/23 21:02:24;;;;;;;;;0.00;0.00;;;;;23.66;44.96;99992.94;4996044;28;45520;-60
2022/05/23 21:04:50;;;;;;;;;3.00;2.00;;;;;23.65;44.87;99986.78;4996595;28;47147;-57
2022/05/23 21:07:17;;;;;;;;;2.75;2.00;;;;;23.65;44.88;99978.00;4996461;28;45325;-57
2022/05/23 21:09:43;;;;;;;;;1.75;1.00;;;;;23.65;45.41;99972.72;4996820;28;45817;-57